Flight Track Log - Related Links

Times and Time Zones

All times are in EDT time to prevent confusion due to time zone crossing. See the VH-NDM flight status page for this flight to view local times or setup timezone preferences in your user account.

Time Position Orientation Groundspeed Altitude Reporting Facility
EDT Latitude Longitude Course Direction KTS MPH feet Rate Location/Type
Sun 07:36:57 PM -28.1749 153.5130 155° Southeast 83 96 400  Level Aus ATC (RADAR)
Sun 07:37:32 PM -28.1856 153.5188 155° Southeast 73 84 800 635 Climbing Aus ATC (RADAR)
Sun 07:38:22 PM -28.2002 153.5110 205° Southwest 74 85 1,300 545 Climbing Aus ATC (RADAR)
Sun 07:39:22 PM -28.1952 153.4860 283° West 81 93 1,800 500 Climbing Aus ATC (RADAR)
Sun 07:40:22 PM -28.1867 153.4613 291° West 81 93 2,300 540 Climbing Aus ATC (RADAR)
Sun 07:41:02 PM -28.1808 153.4442 291° West 84 97 2,700 514 Climbing Aus ATC (RADAR)
Sun 07:42:07 PM -28.1839 153.4149 263° West 87 100 3,200 519 Climbing Aus ATC (RADAR)
Sun 07:42:46 PM -28.1864 153.3968 261° West 88 101 3,600 643 Climbing Aus ATC (RADAR)
Sun 07:43:31 PM -28.1903 153.3779 257° West 80 92 4,100 629 Climbing Aus ATC (RADAR)
Sun 07:44:31 PM -28.1948 153.3527 259° West 81 93 4,700 171 Climbing Aus ATC (RADAR)
Sun 07:45:16 PM -28.1915 153.3309 280° West 97 112 4,400 -75 Descending Aus ATC (RADAR)
Sun 07:45:51 PM -28.1857 153.3117 289° West 106 122 4,600 400 Climbing Aus ATC (RADAR)
Sun 07:46:46 PM -28.1798 153.2818 283° West 98 113 5,000 457 Climbing Aus ATC (RADAR)
Sun 07:47:36 PM -28.1837 153.2552 260° West 101 116 5,400 261 Climbing Aus ATC (RADAR)
Sun 07:48:41 PM -28.1905 153.2167 259° West 115 132 5,500 92 Climbing Aus ATC (RADAR)
Sun 07:52:00 PM -28.2214 153.0764 256° West -1,658 Descending Aus ATC (Calculated)
Sun 07:53:00 PM -28.2287 153.0430 256° West  Level FlightAware Approximate
Sun 07:54:00 PM -28.2360 153.0096 256° West  Level FlightAware Approximate
Sun 07:55:00 PM -28.2433 152.9763 256° West  Level FlightAware Approximate
Sun 07:56:00 PM -28.2505 152.9429 256° West  Level FlightAware Approximate
Sun 07:57:00 PM -28.2578 152.9095 256° West  Level FlightAware Approximate
Sun 07:58:00 PM -28.2651 152.8761 256° West  Level FlightAware Approximate
Sun 07:59:00 PM -28.2724 152.8427 256° West  Level FlightAware Approximate
Sun 08:00:00 PM -28.2796 152.8093 256° West  Level FlightAware Approximate
Sun 08:01:00 PM -28.2869 152.7759 256° West  Level FlightAware Approximate
Sun 08:02:00 PM -28.2941 152.7425 256° West  Level FlightAware Approximate
Sun 08:03:00 PM -28.3013 152.7091 256° West  Level FlightAware Approximate
Sun 08:04:00 PM -28.3085 152.6757 256° West  Level FlightAware Approximate
Sun 08:05:00 PM -28.3158 152.6423 256° West  Level FlightAware Approximate
Sun 08:06:00 PM -28.3230 152.6089 256° West  Level FlightAware Approximate
Sun 08:07:00 PM -28.3302 152.5754 256° West  Level FlightAware Approximate
Sun 08:08:00 PM -28.3374 152.5420 256° West  Level FlightAware Approximate
Sun 08:08:30 PM -28.3547 152.4614 76° East  Level Aus ATC (Calculated)
Sun 08:09:00 PM -28.3445 152.5085 256° West  Level FlightAware Approximate
Sun 08:10:00 PM -28.3654 152.4112 256° West  Level FlightAware Approximate
Sun 08:11:00 PM -28.3725 152.3778 256° West  Level FlightAware Approximate
Sun 08:12:00 PM -28.3797 152.3443 256° West  Level FlightAware Approximate
Sun 08:12:06 PM -28.3941 152.2766 256° West  Level Aus ATC (Calculated)
Sun 08:14:00 PM -28.4076 152.2130 256° West  Level FlightAware Approximate
Sun 08:15:00 PM -28.4147 152.1795 256° West  Level FlightAware Approximate
Sun 08:16:00 PM -28.4218 152.1460 256° West  Level FlightAware Approximate
Sun 08:17:00 PM -28.4289 152.1125 256° West  Level FlightAware Approximate
Sun 08:18:00 PM -28.4360 152.0791 257° West  Level FlightAware Approximate
Sun 08:19:00 PM -28.4289 152.1125 77° East  Level FlightAware Approximate
Sun 08:20:00 PM -28.4360 152.0791 257° West  Level FlightAware Approximate
Sun 08:21:00 PM -28.4289 152.1125 77° East  Level FlightAware Approximate
Sun 08:22:00 PM -28.4360 152.0791 257° West  Level FlightAware Approximate
Sun 08:23:00 PM -28.4289 152.1125 77° East  Level FlightAware Approximate
Sun 08:24:00 PM -28.4360 152.0791 257° West  Level FlightAware Approximate

Login

Don't have an account? Register now (free) for customized features, flight alerts, and more!